sensor_id;sensor_type;location;lat;lon;timestamp;pressure;altitude;pressure_sealevel;temperature;humidity
26043;BME280;13818;52.156;5.382;2022-11-15T00:01:50;100573.94;;;6.81;100.00
26043;BME280;13818;52.156;5.382;2022-11-15T00:04:16;100570.41;;;6.80;100.00
26043;BME280;13818;52.156;5.382;2022-11-15T00:06:43;100568.63;;;6.81;100.00
26043;BME280;13818;52.156;5.382;2022-11-15T00:09:09;100578.19;;;6.85;100.00
26043;BME280;13818;52.156;5.382;2022-11-15T00:11:36;100570.41;;;6.80;100.00
26043;BME280;13818;52.156;5.382;2022-11-15T00:14:02;100576.38;;;6.87;100.00
26043;BME280;13818;52.156;5.382;2022-11-15T00:16:30;100569.16;;;6.91;100.00
26043;BME280;13818;52.156;5.382;2022-11-15T00:18:56;100570.91;;;6.92;100.00
26043;BME280;13818;52.156;5.382;2022-11-15T00:21:23;100568.47;;;6.86;100.00
26043;BME280;13818;52.156;5.382;2022-11-15T00:23:49;100562.31;;;6.85;100.00
26043;BME280;13818;52.156;5.382;2022-11-15T00:26:16;100561.34;;;6.88;100.00
26043;BME280;13818;52.156;5.382;2022-11-15T00:28:43;100564.81;;;6.90;100.00
26043;BME280;13818;52.156;5.382;2022-11-15T00:31:12;100557.66;;;6.92;100.00
26043;BME280;13818;52.156;5.382;2022-11-15T00:33:42;100556.59;;;6.96;100.00
26043;BME280;13818;52.156;5.382;2022-11-15T00:36:09;100557.44;;;6.98;100.00
26043;BME280;13818;52.156;5.382;2022-11-15T00:38:38;100561.88;;;6.97;100.00
26043;BME280;13818;52.156;5.382;2022-11-15T00:41:06;100561.06;;;6.95;100.00
26043;BME280;13818;52.156;5.382;2022-11-15T00:43:33;100569.97;;;6.93;100.00
26043;BME280;13818;52.156;5.382;2022-11-15T00:45:59;100569.06;;;6.94;100.00
26043;BME280;13818;52.156;5.382;2022-11-15T00:48:27;100556.78;;;6.91;100.00
26043;BME280;13818;52.156;5.382;2022-11-15T00:50:55;100561.19;;;6.92;100.00
26043;BME280;13818;52.156;5.382;2022-11-15T00:53:21;100561.13;;;6.94;100.00
26043;BME280;13818;52.156;5.382;2022-11-15T00:55:48;100558.47;;;6.94;100.00
26043;BME280;13818;52.156;5.382;2022-11-15T00:58:14;100547.81;;;6.95;100.00
26043;BME280;13818;52.156;5.382;2022-11-15T01:00:41;100535.47;;;6.94;100.00
26043;BME280;13818;52.156;5.382;2022-11-15T01:03:08;100541.66;;;6.95;100.00
26043;BME280;13818;52.156;5.382;2022-11-15T01:05:37;100532.75;;;6.96;100.00
26043;BME280;13818;52.156;5.382;2022-11-15T01:08:04;100538.94;;;6.96;100.00
26043;BME280;13818;52.156;5.382;2022-11-15T01:10:31;100523.88;;;6.98;100.00
26043;BME280;13818;52.156;5.382;2022-11-15T01:12:57;100536.13;;;7.01;100.00
26043;BME280;13818;52.156;5.382;2022-11-15T01:15:24;100536.94;;;7.03;100.00
26043;BME280;13818;52.156;5.382;2022-11-15T01:17:50;100541.25;;;7.06;100.00
26043;BME280;13818;52.156;5.382;2022-11-15T01:20:17;100532.31;;;7.08;100.00
26043;BME280;13818;52.156;5.382;2022-11-15T01:22:44;100526.88;;;7.13;100.00
26043;BME280;13818;52.156;5.382;2022-11-15T01:25:11;100536.56;;;7.14;100.00
26043;BME280;13818;52.156;5.382;2022-11-15T01:27:38;100531.94;;;7.19;100.00
26043;BME280;13818;52.156;5.382;2022-11-15T01:30:06;100532.69;;;7.23;100.00
26043;BME280;13818;52.156;5.382;2022-11-15T01:32:33;100512.28;;;7.25;100.00
26043;BME280;13818;52.156;5.382;2022-11-15T01:34:59;100511.28;;;7.27;100.00
26043;BME280;13818;52.156;5.382;2022-11-15T01:37:26;100514.75;;;7.29;100.00
26043;BME280;13818;52.156;5.382;2022-11-15T01:39:52;100515.50;;;7.33;100.00
26043;BME280;13818;52.156;5.382;2022-11-15T01:42:20;100510.06;;;7.36;100.00
26043;BME280;13818;52.156;5.382;2022-11-15T01:44:47;100514.53;;;7.36;100.00
26043;BME280;13818;52.156;5.382;2022-11-15T01:47:16;100512.63;;;7.39;100.00
26043;BME280;13818;52.156;5.382;2022-11-15T01:49:49;100515.16;;;7.42;100.00
26043;BME280;13818;52.156;5.382;2022-11-15T01:52:19;100510.66;;;7.44;100.00
26043;BME280;13818;52.156;5.382;2022-11-15T01:54:48;100510.50;;;7.49;100.00
26043;BME280;13818;52.156;5.382;2022-11-15T01:57:16;100510.38;;;7.52;100.00
26043;BME280;13818;52.156;5.382;2022-11-15T01:59:45;100504.16;;;7.53;100.00
26043;BME280;13818;52.156;5.382;2022-11-15T02:02:12;100501.50;;;7.53;100.00
26043;BME280;13818;52.156;5.382;2022-11-15T02:04:41;100494.22;;;7.58;100.00
26043;BME280;13818;52.156;5.382;2022-11-15T02:07:10;100506.31;;;7.65;100.00
26043;BME280;13818;52.156;5.382;2022-11-15T02:09:37;100501.94;;;7.64;100.00
26043;BME280;13818;52.156;5.382;2022-11-15T02:12:04;100508.00;;;7.68;100.00
26043;BME280;13818;52.156;5.382;2022-11-15T02:14:32;100502.56;;;7.71;100.00
26043;BME280;13818;52.156;5.382;2022-11-15T02:17:07;100492.75;;;7.73;100.00
26043;BME280;13818;52.156;5.382;2022-11-15T02:20:03;100484.66;;;7.76;100.00
26043;BME280;13818;52.156;5.382;2022-11-15T02:22:43;100482.50;;;7.86;100.00
26043;BME280;13818;52.156;5.382;2022-11-15T02:25:37;100474.38;;;7.91;100.00
26043;BME280;13818;52.156;5.382;2022-11-15T02:28:15;100472.44;;;7.94;100.00
26043;BME280;13818;52.156;5.382;2022-11-15T02:30:45;100474.97;;;7.97;100.00
26043;BME280;13818;52.156;5.382;2022-11-15T02:33:26;100471.25;;;8.02;100.00
26043;BME280;13818;52.156;5.382;2022-11-15T02:35:58;100463.03;;;8.08;100.00
26043;BME280;13818;52.156;5.382;2022-11-15T02:38:31;100460.28;;;8.11;100.00
26043;BME280;13818;52.156;5.382;2022-11-15T02:41:01;100452.09;;;8.15;100.00
26043;BME280;13818;52.156;5.382;2022-11-15T02:43:33;100456.28;;;8.21;100.00
26043;BME280;13818;52.156;5.382;2022-11-15T02:46:23;100440.22;;;8.24;100.00
26043;BME280;13818;52.156;5.382;2022-11-15T02:49:13;100449.66;;;8.31;100.00
26043;BME280;13818;52.156;5.382;2022-11-15T02:51:41;100453.97;;;8.34;100.00
26043;BME280;13818;52.156;5.382;2022-11-15T02:54:12;100444.00;;;8.39;100.00
26043;BME280;13818;52.156;5.382;2022-11-15T02:56:38;100446.59;;;8.41;100.00
26043;BME280;13818;52.156;5.382;2022-11-15T02:59:23;100444.75;;;8.43;100.00
26043;BME280;13818;52.156;5.382;2022-11-15T03:02:10;100427.88;;;8.44;100.00
26043;BME280;13818;52.156;5.382;2022-11-15T03:04:43;100425.00;;;8.50;100.00
26043;BME280;13818;52.156;5.382;2022-11-15T03:07:14;100426.56;;;8.54;100.00
26043;BME280;13818;52.156;5.382;2022-11-15T03:09:48;100415.94;;;8.54;100.00
26043;BME280;13818;52.156;5.382;2022-11-15T03:12:23;100426.44;;;8.57;100.00
26043;BME280;13818;52.156;5.382;2022-11-15T03:14:55;100428.75;;;8.65;100.00
26043;BME280;13818;52.156;5.382;2022-11-15T03:17:28;100433.06;;;8.68;100.00
26043;BME280;13818;52.156;5.382;2022-11-15T03:19:57;100431.84;;;8.75;100.00
26043;BME280;13818;52.156;5.382;2022-11-15T03:22:27;100437.75;;;8.82;100.00
26043;BME280;13818;52.156;5.382;2022-11-15T03:24:57;100436.75;;;8.84;100.00
26043;BME280;13818;52.156;5.382;2022-11-15T03:27:27;100434.75;;;8.89;100.00
26043;BME280;13818;52.156;5.382;2022-11-15T03:29:57;100435.56;;;8.91;100.00
26043;BME280;13818;52.156;5.382;2022-11-15T03:32:29;100439.88;;;8.94;100.00
26043;BME280;13818;52.156;5.382;2022-11-15T03:35:00;100438.88;;;8.97;100.00
26043;BME280;13818;52.156;5.382;2022-11-15T03:37:32;100443.22;;;8.98;100.00
26043;BME280;13818;52.156;5.382;2022-11-15T03:40:01;100439.63;;;8.99;100.00
26043;BME280;13818;52.156;5.382;2022-11-15T03:42:31;100434.19;;;9.02;100.00
26043;BME280;13818;52.156;5.382;2022-11-15T03:45:06;100437.63;;;9.04;100.00
26043;BME280;13818;52.156;5.382;2022-11-15T03:47:38;100441.09;;;9.06;100.00
26043;BME280;13818;52.156;5.382;2022-11-15T03:50:08;100440.09;;;9.08;100.00
26043;BME280;13818;52.156;5.382;2022-11-15T03:52:37;100436.50;;;9.09;100.00
26043;BME280;13818;52.156;5.382;2022-11-15T03:55:05;100441.59;;;9.14;100.00
26043;BME280;13818;52.156;5.382;2022-11-15T03:57:32;100442.38;;;9.16;100.00
26043;BME280;13818;52.156;5.382;2022-11-15T03:59:59;100433.41;;;9.19;100.00
26043;BME280;13818;52.156;5.382;2022-11-15T04:02:25;100440.16;;;9.26;100.00
26043;BME280;13818;52.156;5.382;2022-11-15T04:04:53;100435.56;;;9.30;100.00
26043;BME280;13818;52.156;5.382;2022-11-15T04:07:19;100428.44;;;9.30;100.00
26043;BME280;13818;52.156;5.382;2022-11-15T04:09:46;100437.00;;;9.37;100.00
26043;BME280;13818;52.156;5.382;2022-11-15T04:12:31;100437.47;;;9.45;100.00
26043;BME280;13818;52.156;5.382;2022-11-15T04:15:03;100432.16;;;9.45;100.00
26043;BME280;13818;52.156;5.382;2022-11-15T04:17:38;100430.22;;;9.49;100.00
26043;BME280;13818;52.156;5.382;2022-11-15T04:20:08;100429.03;;;9.54;100.00
26043;BME280;13818;52.156;5.382;2022-11-15T04:22:53;100418.47;;;9.53;100.00
26043;BME280;13818;52.156;5.382;2022-11-15T04:25:38;100428.19;;;9.54;100.00
26043;BME280;13818;52.156;5.382;2022-11-15T04:28:04;100424.69;;;9.53;100.00
26043;BME280;13818;52.156;5.382;2022-11-15T04:30:31;100434.25;;;9.57;100.00
26043;BME280;13818;52.156;5.382;2022-11-15T04:32:57;100425.16;;;9.61;100.00
26043;BME280;13818;52.156;5.382;2022-11-15T04:35:25;100426.72;;;9.66;100.00
26043;BME280;13818;52.156;5.382;2022-11-15T04:37:51;100422.28;;;9.66;100.00
26043;BME280;13818;52.156;5.382;2022-11-15T04:40:17;100422.19;;;9.68;100.00
26043;BME280;13818;52.156;5.382;2022-11-15T04:42:43;100419.53;;;9.68;100.00
26043;BME280;13818;52.156;5.382;2022-11-15T04:45:10;100415.00;;;9.70;100.00
26043;BME280;13818;52.156;5.382;2022-11-15T04:47:37;100413.19;;;9.70;100.00
26043;BME280;13818;52.156;5.382;2022-11-15T04:50:04;100417.44;;;9.74;100.00
26043;BME280;13818;52.156;5.382;2022-11-15T04:52:31;100419.03;;;9.79;100.00
26043;BME280;13818;52.156;5.382;2022-11-15T04:54:58;100420.97;;;9.75;100.00
26043;BME280;13818;52.156;5.382;2022-11-15T04:57:24;100411.88;;;9.79;100.00
26043;BME280;13818;52.156;5.382;2022-11-15T04:59:51;100417.00;;;9.84;100.00
26043;BME280;13818;52.156;5.382;2022-11-15T05:02:17;100410.72;;;9.85;100.00
26043;BME280;13818;52.156;5.382;2022-11-15T05:04:43;100416.91;;;9.85;100.00
26043;BME280;13818;52.156;5.382;2022-11-15T05:07:09;100416.72;;;9.88;100.00
26043;BME280;13818;52.156;5.382;2022-11-15T05:09:37;100425.59;;;9.89;100.00
26043;BME280;13818;52.156;5.382;2022-11-15T05:12:03;100426.41;;;9.91;100.00
26043;BME280;13818;52.156;5.382;2022-11-15T05:14:30;100432.66;;;9.90;100.00
26043;BME280;13818;52.156;5.382;2022-11-15T05:16:56;100431.56;;;9.94;100.00
26043;BME280;13818;52.156;5.382;2022-11-15T05:19:23;100433.38;;;9.93;100.00
26043;BME280;13818;52.156;5.382;2022-11-15T05:21:49;100432.34;;;9.96;100.00
26043;BME280;13818;52.156;5.382;2022-11-15T05:24:16;100434.13;;;9.96;100.00
26043;BME280;13818;52.156;5.382;2022-11-15T05:26:43;100442.84;;;9.99;100.00
26043;BME280;13818;52.156;5.382;2022-11-15T05:29:10;100440.19;;;9.99;100.00
26043;BME280;13818;52.156;5.382;2022-11-15T05:31:39;100438.44;;;9.98;100.00
26043;BME280;13818;52.156;5.382;2022-11-15T05:34:06;100448.97;;;10.01;100.00
26043;BME280;13818;52.156;5.382;2022-11-15T05:36:35;100447.94;;;10.04;100.00
26043;BME280;13818;52.156;5.382;2022-11-15T05:39:04;100438.00;;;10.07;100.00
26043;BME280;13818;52.156;5.382;2022-11-15T05:41:33;100443.16;;;10.10;100.00
26043;BME280;13818;52.156;5.382;2022-11-15T05:44:05;100436.91;;;10.12;100.00
26043;BME280;13818;52.156;5.382;2022-11-15T05:46:34;100444.00;;;10.11;100.00
26043;BME280;13818;52.156;5.382;2022-11-15T05:49:02;100447.53;;;10.12;100.00
26043;BME280;13818;52.156;5.382;2022-11-15T05:51:30;100442.00;;;10.16;100.00
26043;BME280;13818;52.156;5.382;2022-11-15T05:53:58;100449.66;;;10.22;100.00
26043;BME280;13818;52.156;5.382;2022-11-15T05:56:25;100454.03;;;10.23;100.00
26043;BME280;13818;52.156;5.382;2022-11-15T05:58:52;100455.63;;;10.28;100.00
26043;BME280;13818;52.156;5.382;2022-11-15T06:01:20;100460.00;;;10.29;100.00
26043;BME280;13818;52.156;5.382;2022-11-15T06:03:47;100447.47;;;10.31;100.00
26043;BME280;13818;52.156;5.382;2022-11-15T06:06:13;100444.56;;;10.35;100.00
26043;BME280;13818;52.156;5.382;2022-11-15T06:08:40;100447.25;;;10.35;100.00
26043;BME280;13818;52.156;5.382;2022-11-15T06:11:07;100460.34;;;10.40;100.00
26043;BME280;13818;52.156;5.382;2022-11-15T06:13:34;100455.00;;;10.40;100.00
26043;BME280;13818;52.156;5.382;2022-11-15T06:16:00;100455.88;;;10.40;100.00
26043;BME280;13818;52.156;5.382;2022-11-15T06:18:31;100456.28;;;10.50;100.00
26043;BME280;13818;52.156;5.382;2022-11-15T06:20:58;100463.31;;;10.51;100.00
26043;BME280;13818;52.156;5.382;2022-11-15T06:23:25;100461.28;;;10.56;100.00
26043;BME280;13818;52.156;5.382;2022-11-15T06:25:52;100466.28;;;10.63;100.00
26043;BME280;13818;52.156;5.382;2022-11-15T06:28:18;100472.41;;;10.65;100.00
26043;BME280;13818;52.156;5.382;2022-11-15T06:30:45;100472.31;;;10.66;100.00
26043;BME280;13818;52.156;5.382;2022-11-15T06:33:11;100476.78;;;10.66;100.00
26043;BME280;13818;52.156;5.382;2022-11-15T06:35:39;100475.84;;;10.67;100.00
26043;BME280;13818;52.156;5.382;2022-11-15T06:38:07;100476.22;;;10.77;100.00
26043;BME280;13818;52.156;5.382;2022-11-15T06:40:34;100479.13;;;10.72;100.00
26043;BME280;13818;52.156;5.382;2022-11-15T06:43:01;100472.06;;;10.71;100.00
26043;BME280;13818;52.156;5.382;2022-11-15T06:45:28;100467.78;;;10.68;100.00
26043;BME280;13818;52.156;5.382;2022-11-15T06:47:55;100471.28;;;10.69;100.00
26043;BME280;13818;52.156;5.382;2022-11-15T06:50:21;100468.47;;;10.72;100.00
26043;BME280;13818;52.156;5.382;2022-11-15T06:52:49;100466.56;;;10.74;100.00
26043;BME280;13818;52.156;5.382;2022-11-15T06:55:16;100477.41;;;10.71;100.00
26043;BME280;13818;52.156;5.382;2022-11-15T06:57:49;100480.25;;;10.68;100.00
26043;BME280;13818;52.156;5.382;2022-11-15T07:00:17;100484.69;;;10.67;100.00
26043;BME280;13818;52.156;5.382;2022-11-15T07:02:44;100485.63;;;10.66;100.00
26043;BME280;13818;52.156;5.382;2022-11-15T07:05:12;100492.56;;;10.70;100.00
26043;BME280;13818;52.156;5.382;2022-11-15T07:07:38;100500.47;;;10.72;100.00
26043;BME280;13818;52.156;5.382;2022-11-15T07:10:07;100495.91;;;10.74;100.00
26043;BME280;13818;52.156;5.382;2022-11-15T07:12:34;100503.88;;;10.74;100.00
26043;BME280;13818;52.156;5.382;2022-11-15T07:15:00;100495.91;;;10.74;100.00
26043;BME280;13818;52.156;5.382;2022-11-15T07:17:27;100500.06;;;10.80;100.00
26043;BME280;13818;52.156;5.382;2022-11-15T07:19:53;100495.53;;;10.82;100.00
26043;BME280;13818;52.156;5.382;2022-11-15T07:22:19;100503.50;;;10.82;100.00
26043;BME280;13818;52.156;5.382;2022-11-15T07:24:46;100505.22;;;10.83;100.00
26043;BME280;13818;52.156;5.382;2022-11-15T07:27:13;100501.59;;;10.84;100.00
26043;BME280;13818;52.156;5.382;2022-11-15T07:29:40;100499.81;;;10.84;100.00
26043;BME280;13818;52.156;5.382;2022-11-15T07:32:06;100508.34;;;10.91;100.00
26043;BME280;13818;52.156;5.382;2022-11-15T07:34:33;100505.59;;;10.93;100.00
26043;BME280;13818;52.156;5.382;2022-11-15T07:36:59;100501.47;;;10.87;100.00
26043;BME280;13818;52.156;5.382;2022-11-15T07:39:25;100504.19;;;10.85;100.00
26043;BME280;13818;52.156;5.382;2022-11-15T07:41:52;100498.72;;;10.88;100.00
26043;BME280;13818;52.156;5.382;2022-11-15T07:44:40;100498.53;;;10.91;100.00
26043;BME280;13818;52.156;5.382;2022-11-15T07:47:07;100502.50;;;11.00;100.00
26043;BME280;13818;52.156;5.382;2022-11-15T07:49:33;100496.09;;;11.04;100.00
26043;BME280;13818;52.156;5.382;2022-11-15T07:52:00;100494.38;;;11.03;100.00
26043;BME280;13818;52.156;5.382;2022-11-15T07:54:26;100486.50;;;11.00;100.00
26043;BME280;13818;52.156;5.382;2022-11-15T07:56:53;100487.41;;;11.01;100.00
26043;BME280;13818;52.156;5.382;2022-11-15T07:59:19;100489.19;;;11.00;100.00
26043;BME280;13818;52.156;5.382;2022-11-15T08:01:47;100492.56;;;11.04;100.00
26043;BME280;13818;52.156;5.382;2022-11-15T08:04:13;100493.25;;;11.07;100.00
26043;BME280;13818;52.156;5.382;2022-11-15T08:06:40;100495.69;;;11.12;100.00
26043;BME280;13818;52.156;5.382;2022-11-15T08:09:06;100487.41;;;11.17;100.00
26043;BME280;13818;52.156;5.382;2022-11-15T08:11:33;100485.44;;;11.20;100.00
26043;BME280;13818;52.156;5.382;2022-11-15T08:13:59;100479.06;;;11.23;100.00
26043;BME280;13818;52.156;5.382;2022-11-15T08:16:25;100474.00;;;11.18;100.00
26043;BME280;13818;52.156;5.382;2022-11-15T08:18:53;100480.81;;;11.24;100.00
26043;BME280;13818;52.156;5.382;2022-11-15T08:21:21;100477.81;;;11.30;100.00
26043;BME280;13818;52.156;5.382;2022-11-15T08:23:47;100480.66;;;11.27;100.00
26043;BME280;13818;52.156;5.382;2022-11-15T08:26:14;100479.69;;;11.28;100.00
26043;BME280;13818;52.156;5.382;2022-11-15T08:28:41;100482.09;;;11.33;100.00
26043;BME280;13818;52.156;5.382;2022-11-15T08:31:13;100477.47;;;11.36;100.00
26043;BME280;13818;52.156;5.382;2022-11-15T08:33:39;100485.38;;;11.38;100.00
26043;BME280;13818;52.156;5.382;2022-11-15T08:36:13;100475.91;;;11.32;100.00
26043;BME280;13818;52.156;5.382;2022-11-15T08:38:39;100472.03;;;11.38;100.00
26043;BME280;13818;52.156;5.382;2022-11-15T08:41:06;100470.84;;;11.44;100.00
26043;BME280;13818;52.156;5.382;2022-11-15T08:43:32;100464.72;;;11.42;100.00
26043;BME280;13818;52.156;5.382;2022-11-15T08:45:59;100456.91;;;11.38;100.00
26043;BME280;13818;52.156;5.382;2022-11-15T08:48:25;100454.28;;;11.37;100.00
26043;BME280;13818;52.156;5.382;2022-11-15T08:50:53;100445.94;;;11.43;100.00
26043;BME280;13818;52.156;5.382;2022-11-15T08:53:21;100452.16;;;11.44;100.00
26043;BME280;13818;52.156;5.382;2022-11-15T08:55:48;100450.84;;;11.51;100.00
26043;BME280;13818;52.156;5.382;2022-11-15T08:58:14;100450.00;;;11.50;100.00
26043;BME280;13818;52.156;5.382;2022-11-15T09:00:41;100452.88;;;11.47;100.00
26043;BME280;13818;52.156;5.382;2022-11-15T09:03:07;100448.19;;;11.51;100.00
26043;BME280;13818;52.156;5.382;2022-11-15T09:05:35;100445.25;;;11.55;100.00
26043;BME280;13818;52.156;5.382;2022-11-15T09:08:02;100448.38;;;11.64;100.00
26043;BME280;13818;52.156;5.382;2022-11-15T09:10:30;100450.31;;;11.76;100.00
26043;BME280;13818;52.156;5.382;2022-11-15T09:12:57;100442.16;;;11.79;100.00
26043;BME280;13818;52.156;5.382;2022-11-15T09:15:23;100447.22;;;11.84;100.00
26043;BME280;13818;52.156;5.382;2022-11-15T09:17:50;100445.06;;;11.91;100.00
26043;BME280;13818;52.156;5.382;2022-11-15T09:20:16;100437.81;;;11.93;100.00
26043;BME280;13818;52.156;5.382;2022-11-15T09:22:43;100438.25;;;12.01;100.00
26043;BME280;13818;52.156;5.382;2022-11-15T09:25:09;100436.44;;;12.01;100.00
26043;BME280;13818;52.156;5.382;2022-11-15T09:27:37;100443.13;;;12.09;100.00
26043;BME280;13818;52.156;5.382;2022-11-15T09:30:04;100440.84;;;12.02;100.00
26043;BME280;13818;52.156;5.382;2022-11-15T09:32:31;100445.13;;;12.05;100.00
26043;BME280;13818;52.156;5.382;2022-11-15T09:34:57;100440.75;;;12.04;100.00
26043;BME280;13818;52.156;5.382;2022-11-15T09:37:24;100423.44;;;11.95;100.00
26043;BME280;13818;52.156;5.382;2022-11-15T09:39:50;100427.66;;;11.99;100.00
26043;BME280;13818;52.156;5.382;2022-11-15T09:42:35;100426.78;;;11.99;100.00
26043;BME280;13818;52.156;5.382;2022-11-15T09:45:20;100424.91;;;12.01;100.00
26043;BME280;13818;52.156;5.382;2022-11-15T09:48:10;100425.59;;;12.04;100.00
26043;BME280;13818;52.156;5.382;2022-11-15T09:50:43;100409.09;;;12.12;100.00
26043;BME280;13818;52.156;5.382;2022-11-15T09:53:14;100406.25;;;12.15;100.00
26043;BME280;13818;52.156;5.382;2022-11-15T09:55:46;100412.94;;;12.23;100.00
26043;BME280;13818;52.156;5.382;2022-11-15T09:58:18;100414.50;;;12.27;100.00
26043;BME280;13818;52.156;5.382;2022-11-15T10:00:50;100416.19;;;12.28;100.00
26043;BME280;13818;52.156;5.382;2022-11-15T10:03:25;100402.28;;;12.37;100.00
26043;BME280;13818;52.156;5.382;2022-11-15T10:05:56;100404.59;;;12.43;100.00
26043;BME280;13818;52.156;5.382;2022-11-15T10:08:35;100408.13;;;12.44;100.00
26043;BME280;13818;52.156;5.382;2022-11-15T10:11:06;100400.00;;;12.45;100.00
26043;BME280;13818;52.156;5.382;2022-11-15T10:13:34;100404.59;;;12.43;100.00
26043;BME280;13818;52.156;5.382;2022-11-15T10:16:14;100398.47;;;12.56;100.00
26043;BME280;13818;52.156;5.382;2022-11-15T10:18:51;100392.38;;;12.53;100.00
26043;BME280;13818;52.156;5.382;2022-11-15T10:21:23;100397.72;;;12.53;100.00
26043;BME280;13818;52.156;5.382;2022-11-15T10:23:52;100397.22;;;12.47;100.00
26043;BME280;13818;52.156;5.382;2022-11-15T10:26:19;100387.72;;;12.57;100.00
26043;BME280;13818;52.156;5.382;2022-11-15T10:28:47;100380.53;;;12.58;100.00
26043;BME280;13818;52.156;5.382;2022-11-15T10:31:23;100384.91;;;12.44;100.00
26043;BME280;13818;52.156;5.382;2022-11-15T10:33:51;100378.81;;;12.57;100.00
26043;BME280;13818;52.156;5.382;2022-11-15T10:36:22;100366.22;;;12.59;100.00
26043;BME280;13818;52.156;5.382;2022-11-15T10:38:55;100376.13;;;12.57;100.00
26043;BME280;13818;52.156;5.382;2022-11-15T10:41:30;100358.47;;;12.40;100.00
26043;BME280;13818;52.156;5.382;2022-11-15T10:44:11;100354.66;;;12.44;100.00
26043;BME280;13818;52.156;5.382;2022-11-15T10:46:41;100348.38;;;12.45;100.00
26043;BME280;13818;52.156;5.382;2022-11-15T10:49:15;100354.94;;;12.39;100.00
26043;BME280;13818;52.156;5.382;2022-11-15T10:51:45;100346.44;;;12.47;100.00
26043;BME280;13818;52.156;5.382;2022-11-15T10:54:14;100348.09;;;12.49;100.00
26043;BME280;13818;52.156;5.382;2022-11-15T10:56:49;100335.56;;;12.50;100.00
26043;BME280;13818;52.156;5.382;2022-11-15T10:59:23;100336.59;;;12.62;100.00
26043;BME280;13818;52.156;5.382;2022-11-15T11:01:51;100331.53;;;12.72;100.00
26043;BME280;13818;52.156;5.382;2022-11-15T11:04:17;100323.06;;;12.65;100.00
26043;BME280;13818;52.156;5.382;2022-11-15T11:06:49;100309.50;;;12.53;100.00
26043;BME280;13818;52.156;5.382;2022-11-15T11:09:28;100324.59;;;12.55;100.00
26043;BME280;13818;52.156;5.382;2022-11-15T11:11:56;100321.22;;;12.65;100.00
26043;BME280;13818;52.156;5.382;2022-11-15T11:14:24;100329.84;;;12.56;100.00
26043;BME280;13818;52.156;5.382;2022-11-15T11:16:55;100318.69;;;12.49;100.00
26043;BME280;13818;52.156;5.382;2022-11-15T11:19:50;100333.66;;;12.52;100.00
26043;BME280;13818;52.156;5.382;2022-11-15T11:22:25;100320.38;;;12.50;100.00
26043;BME280;13818;52.156;5.382;2022-11-15T11:25:02;100309.50;;;12.53;100.00
26043;BME280;13818;52.156;5.382;2022-11-15T11:27:40;100300.63;;;12.53;100.00
26043;BME280;13818;52.156;5.382;2022-11-15T11:30:12;100308.63;;;12.53;100.00
26043;BME280;13818;52.156;5.382;2022-11-15T11:32:54;100306.06;;;12.51;100.00
26043;BME280;13818;52.156;5.382;2022-11-15T11:35:24;100317.22;;;12.58;100.00
26043;BME280;13818;52.156;5.382;2022-11-15T11:37:59;100305.38;;;12.48;100.00
26043;BME280;13818;52.156;5.382;2022-11-15T11:40:30;100313.91;;;12.55;100.00
26043;BME280;13818;52.156;5.382;2022-11-15T11:43:02;100313.41;;;12.48;100.00
26043;BME280;13818;52.156;5.382;2022-11-15T11:46:04;100304.81;;;12.43;100.00
26043;BME280;13818;52.156;5.382;2022-11-15T11:48:41;100297.47;;;12.46;100.00
26043;BME280;13818;52.156;5.382;2022-11-15T11:51:15;100298.44;;;12.45;100.00
26043;BME280;13818;52.156;5.382;2022-11-15T11:53:48;100298.50;;;12.58;100.00
26043;BME280;13818;52.156;5.382;2022-11-15T11:56:23;100280.28;;;12.65;100.00
26043;BME280;13818;52.156;5.382;2022-11-15T11:58:53;100275.59;;;12.68;100.00
26043;BME280;13818;52.156;5.382;2022-11-15T12:01:23;100270.97;;;12.85;100.00
26043;BME280;13818;52.156;5.382;2022-11-15T12:03:55;100263.63;;;12.74;100.00
26043;BME280;13818;52.156;5.382;2022-11-15T12:06:28;100259.63;;;12.81;100.00
26043;BME280;13818;52.156;5.382;2022-11-15T12:09:01;100250.81;;;12.79;100.00
26043;BME280;13818;52.156;5.382;2022-11-15T12:11:33;100245.28;;;12.82;100.00
26043;BME280;13818;52.156;5.382;2022-11-15T12:14:08;100235.50;;;12.68;100.00
26043;BME280;13818;52.156;5.382;2022-11-15T12:16:39;100237.84;;;12.73;100.00
26043;BME280;13818;52.156;5.382;2022-11-15T12:19:09;100242.69;;;12.81;100.00
26043;BME280;13818;52.156;5.382;2022-11-15T12:21:41;100230.03;;;12.70;100.00
26043;BME280;13818;52.156;5.382;2022-11-15T12:24:14;100230.59;;;12.75;100.00
26043;BME280;13818;52.156;5.382;2022-11-15T12:26:47;100218.28;;;12.73;100.00
26043;BME280;13818;52.156;5.382;2022-11-15T12:29:18;100216.00;;;12.66;100.00
26043;BME280;13818;52.156;5.382;2022-11-15T12:31:49;100209.50;;;12.70;100.00
26043;BME280;13818;52.156;5.382;2022-11-15T12:34:36;100208.38;;;12.75;100.00
26043;BME280;13818;52.156;5.382;2022-11-15T12:40:35;100195.94;;;12.74;100.00
26043;BME280;13818;52.156;5.382;2022-11-15T12:43:07;100188.38;;;12.80;100.00
26043;BME280;13818;52.156;5.382;2022-11-15T12:45:51;100183.41;;;12.74;100.00
26043;BME280;13818;52.156;5.382;2022-11-15T12:48:47;100178.63;;;12.79;100.00
26043;BME280;13818;52.156;5.382;2022-11-15T12:51:16;100162.03;;;12.74;100.00
26043;BME280;13818;52.156;5.382;2022-11-15T12:53:42;100161.19;;;12.74;100.00
26043;BME280;13818;52.156;5.382;2022-11-15T12:56:23;100157.13;;;12.81;100.00
26043;BME280;13818;52.156;5.382;2022-11-15T12:58:53;100172.88;;;12.85;100.00
26043;BME280;13818;52.156;5.382;2022-11-15T13:04:35;100149.97;;;12.81;100.00
26043;BME280;13818;52.156;5.382;2022-11-15T13:07:04;100148.38;;;12.79;100.00